Time;durP1;ratioP1;P1;durP2;ratioP2;P2;SDS_P1;SDS_P2;PMS_P1;PMS_P2;Temp;Humidity;BMP_temperature;BMP_pressure;BME280_temperature;BME280_humidity;BME280_pressure;Samples;Min_cycle;Max_cycle;Signal;HPM_P1;HPM_P2
2024/01/31 00:01:31;;;;;;;;;;;;;;;-144.99;100.00;52456.25;5004260;28;20028;-77
2024/01/31 00:03:57;;;;;;;;;;;;;;;-144.99;100.00;52464.41;5008164;28;20028;-77
2024/01/31 00:06:25;;;;;;;;;;;;;;;-144.99;100.00;52444.03;5008654;28;19933;-79
2024/01/31 00:08:52;;;;;;;;;;;;;;;-144.99;100.00;52497.00;5005175;28;20421;-75
2024/01/31 00:11:20;;;;;;;;;;;;;;;-144.99;100.00;52484.78;5006877;28;19979;-77
2024/01/31 00:13:47;;;;;;;;;;;;;;;-144.99;100.00;52494.97;5010711;28;19914;-80
2024/01/31 00:16:14;;;;;;;;;;;;;;;-144.99;100.00;52460.31;5026681;28;19929;-81
2024/01/31 00:18:40;;;;;;;;;;;;;;;-144.99;100.00;52409.38;5026375;28;19929;-79
2024/01/31 00:21:06;;;;;;;;;;;;;;;-144.99;100.00;52468.47;5030516;28;19913;-81
2024/01/31 00:23:34;;;;;;;;;;;;;;;-144.99;100.00;52505.16;5025435;28;19933;-78
2024/01/31 00:26:01;;;;;;;;;;;;;;;-144.99;100.00;52456.25;4984414;28;20067;-77
2024/01/31 00:28:27;;;;;;;;;;;;;;;-144.99;100.00;52458.28;5011754;28;20063;-78
2024/01/31 00:30:54;;;;;;;;;;;;;;;-144.99;100.00;52448.09;5006366;28;20032;-78
2024/01/31 00:33:20;;;;;;;;;;;;;;;-144.99;100.00;52456.25;5007339;28;20012;-78
2024/01/31 00:35:46;;;;;;;;;;;;;;;-144.99;100.00;52488.84;5007278;28;19960;-79
2024/01/31 00:38:13;;;;;;;;;;;;;;;-144.99;100.00;52433.81;5006856;28;20014;-79
2024/01/31 00:40:41;;;;;;;;;;;;;;;-144.99;100.00;52448.09;5000280;28;20031;-79
2024/01/31 00:43:09;;;;;;;;;;;;;;;-144.99;100.00;52474.59;5006184;28;19975;-77
2024/01/31 00:45:36;;;;;;;;;;;;;;;-144.99;100.00;52474.59;5002164;28;19991;-79
2024/01/31 00:48:03;;;;;;;;;;;;;;;-144.99;100.00;52470.50;4656060;28;10000343;-77
2024/01/31 00:50:29;;;;;;;;;;;;;;;-144.99;100.00;52460.31;4978756;28;20094;-77
2024/01/31 00:52:55;;;;;;;;;;;;;;;-144.99;100.00;52472.56;5007288;28;20024;-75
2024/01/31 00:55:22;;;;;;;;;;;;;;;-144.99;100.00;52468.47;5007033;28;19945;-75
2024/01/31 00:57:50;;;;;;;;;;;;;;;-144.99;100.00;52497.00;5007138;28;19956;-76
2024/01/31 01:00:17;;;;;;;;;;;;;;;-144.99;100.00;52468.47;5000384;28;20025;-75
2024/01/31 01:02:44;;;;;;;;;;;;;;;-144.99;100.00;52460.31;5010227;28;19933;-75
2024/01/31 01:05:11;;;;;;;;;;;;;;;-144.99;100.00;52492.94;5010259;28;20482;-74
2024/01/31 01:07:38;;;;;;;;;;;;;;;-144.99;100.00;52464.41;5008191;28;19969;-77
2024/01/31 01:10:06;;;;;;;;;;;;;;;-144.99;100.00;52456.25;5006875;28;19995;-78
2024/01/31 01:12:32;;;;;;;;;;;;;;;-144.99;100.00;52488.84;5005073;28;20384;-79
2024/01/31 01:15:00;;;;;;;;;;;;;;;-144.99;100.00;52492.94;5008623;28;20401;-75
2024/01/31 01:17:26;;;;;;;;;;;;;;;-144.99;100.00;52507.19;5009106;28;19925;-77
2024/01/31 01:19:53;;;;;;;;;;;;;;;-144.99;100.00;52488.84;5001346;28;19944;-76
2024/01/31 01:22:19;;;;;;;;;;;;;;;-144.99;100.00;52497.00;5004741;28;20068;-77
2024/01/31 01:24:46;;;;;;;;;;;;;;;-144.99;100.00;52484.78;5008387;28;19925;-75
2024/01/31 01:27:12;;;;;;;;;;;;;;;-144.99;100.00;52452.16;5004093;28;20321;-73
2024/01/31 01:29:39;;;;;;;;;;;;;;;-144.99;100.00;52472.56;5013267;28;20015;-74
2024/01/31 01:32:07;;;;;;;;;;;;;;;-144.99;100.00;52464.41;5007199;28;19965;-74
2024/01/31 01:34:33;;;;;;;;;;;;;;;-144.99;100.00;52460.31;5009169;28;19965;-77
2024/01/31 01:37:00;;;;;;;;;;;;;;;-144.99;100.00;52476.63;5006594;28;19929;-76
2024/01/31 01:39:28;;;;;;;;;;;;;;;-144.99;100.00;52466.44;5009069;28;20004;-77
2024/01/31 01:41:56;;;;;;;;;;;;;;;-144.99;100.00;52488.84;5008103;28;19991;-78
2024/01/31 01:44:22;;;;;;;;;;;;;;;-144.99;100.00;52454.22;5008959;28;20371;-78
2024/01/31 01:46:49;;;;;;;;;;;;;;;-144.99;100.00;52480.72;5005642;28;19975;-79
2024/01/31 01:49:17;;;;;;;;;;;;;;;-144.99;100.00;52492.94;5005309;28;20067;-79
2024/01/31 01:51:45;;;;;;;;;;;;;;;-144.99;100.00;52484.78;5004725;28;19952;-77
2024/01/31 01:54:12;;;;;;;;;;;;;;;-144.99;100.00;52448.09;5008929;28;19964;-76
2024/01/31 01:56:39;;;;;;;;;;;;;;;-144.99;100.00;52444.03;4997558;28;20016;-78
2024/01/31 01:59:06;;;;;;;;;;;;;;;-144.99;100.00;52505.16;5008565;28;19988;-79
2024/01/31 02:01:32;;;;;;;;;;;;;;;-144.99;100.00;52499.06;5007889;28;20164;-76
2024/01/31 02:03:59;;;;;;;;;;;;;;;-144.99;100.00;52492.94;5001175;28;19929;-80
2024/01/31 02:06:27;;;;;;;;;;;;;;;-144.99;100.00;52476.63;5019442;28;19930;-82
2024/01/31 02:08:53;;;;;;;;;;;;;;;-144.99;100.00;52460.31;5015708;28;19937;-81
2024/01/31 02:11:20;;;;;;;;;;;;;;;-144.99;100.00;52468.47;5025873;28;19930;-78
2024/01/31 02:13:46;;;;;;;;;;;;;;;-144.99;100.00;52505.16;5021264;28;19925;-79
2024/01/31 02:16:13;;;;;;;;;;;;;;;-144.99;100.00;52458.28;5011484;28;20439;-78
2024/01/31 02:18:39;;;;;;;;;;;;;;;-144.99;100.00;52482.75;5002312;28;20365;-78
2024/01/31 02:21:06;;;;;;;;;;;;;;;-144.99;100.00;52492.94;5004010;28;20035;-78
2024/01/31 02:23:34;;;;;;;;;;;;;;;-144.99;100.00;52480.72;5008406;28;19964;-75
2024/01/31 02:26:00;;;;;;;;;;;;;;;-144.99;100.00;52444.03;5010788;28;20305;-75
2024/01/31 02:28:27;;;;;;;;;;;;;;;-144.99;100.00;52515.34;5010303;28;19972;-76
2024/01/31 02:30:54;;;;;;;;;;;;;;;-144.99;100.00;52497.00;5008760;28;19969;-75
2024/01/31 02:33:21;;;;;;;;;;;;;;;-144.99;100.00;52497.00;5010773;28;19977;-75
2024/01/31 02:35:49;;;;;;;;;;;;;;;-144.99;100.00;52468.47;5011213;28;20128;-74
2024/01/31 02:38:15;;;;;;;;;;;;;;;-144.99;100.00;52450.13;5012434;28;20379;-75
2024/01/31 02:40:43;;;;;;;;;;;;;;;-144.99;100.00;52466.44;5013122;28;20389;-75
2024/01/31 02:43:10;;;;;;;;;;;;;;;-144.99;100.00;52505.16;5012317;28;20016;-75
2024/01/31 02:45:36;;;;;;;;;;;;;;;-144.99;100.00;52456.25;5012456;28;20021;-76
2024/01/31 02:48:02;;;;;;;;;;;;;;;-144.99;100.00;52513.31;4996682;28;20033;-76
2024/01/31 02:50:30;;;;;;;;;;;;;;;-144.99;100.00;52505.16;5012996;28;19965;-75
2024/01/31 02:52:56;;;;;;;;;;;;;;;-144.99;100.00;52478.66;5011611;28;20282;-75
2024/01/31 02:55:23;;;;;;;;;;;;;;;-144.99;100.00;52492.94;5008747;28;20124;-75
2024/01/31 02:57:51;;;;;;;;;;;;;;;-144.99;100.00;52509.25;5014124;28;19988;-73
2024/01/31 03:00:17;;;;;;;;;;;;;;;-144.99;100.00;52456.25;5005252;28;19970;-75
2024/01/31 03:02:44;;;;;;;;;;;;;;;-144.99;100.00;52492.94;5010682;28;19941;-76
2024/01/31 03:05:09;;;;;;;;;;;;;;;-144.99;100.00;52474.59;5008384;28;19975;-76
2024/01/31 03:07:36;;;;;;;;;;;;;;;-144.99;100.00;52497.00;5006840;28;19965;-76
2024/01/31 03:10:02;;;;;;;;;;;;;;;-144.99;100.00;52488.84;5012621;28;19929;-74
2024/01/31 03:12:29;;;;;;;;;;;;;;;-144.99;100.00;52509.25;5011493;28;19925;-75
2024/01/31 03:14:57;;;;;;;;;;;;;;;-144.99;100.00;52501.09;5010368;28;19964;-75
2024/01/31 03:17:23;;;;;;;;;;;;;;;-144.99;100.00;52519.44;5021985;28;19949;-75
2024/01/31 03:19:50;;;;;;;;;;;;;;;-144.99;100.00;52466.44;5008531;28;20044;-72
2024/01/31 03:22:16;;;;;;;;;;;;;;;-144.99;100.00;52444.03;5011747;28;20315;-75
2024/01/31 03:24:43;;;;;;;;;;;;;;;-144.99;100.00;52464.41;5010253;28;19963;-72
2024/01/31 03:27:09;;;;;;;;;;;;;;;-144.99;100.00;52517.41;5009030;28;19939;-75
2024/01/31 03:29:36;;;;;;;;;;;;;;;-144.99;100.00;52472.56;5013989;28;19935;-74
2024/01/31 03:32:04;;;;;;;;;;;;;;;-144.99;100.00;52466.44;5009017;28;20471;-74
2024/01/31 03:34:30;;;;;;;;;;;;;;;-144.99;100.00;52478.66;5012593;28;19944;-75
2024/01/31 03:36:57;;;;;;;;;;;;;;;-144.99;100.00;52488.84;5008987;28;20271;-76
2024/01/31 03:39:23;;;;;;;;;;;;;;;-144.99;100.00;52503.13;5009916;28;20020;-75
2024/01/31 03:41:50;;;;;;;;;;;;;;;-144.99;100.00;52497.00;5008806;28;20339;-73
2024/01/31 03:44:16;;;;;;;;;;;;;;;-144.99;100.00;52501.09;5009773;28;19945;-74
2024/01/31 03:46:43;;;;;;;;;;;;;;;-144.99;100.00;52460.31;5008339;28;20318;-73
2024/01/31 03:49:10;;;;;;;;;;;;;;;-144.99;100.00;52492.94;5008661;28;19934;-73
2024/01/31 03:51:37;;;;;;;;;;;;;;;-144.99;100.00;52472.56;5009487;28;19944;-74
2024/01/31 03:54:03;;;;;;;;;;;;;;;-144.99;100.00;52466.44;5009037;28;20400;-75
2024/01/31 03:56:30;;;;;;;;;;;;;;;-144.99;100.00;52507.19;5008453;28;20020;-75
2024/01/31 03:58:56;;;;;;;;;;;;;;;-144.99;100.00;52517.41;5008483;28;20104;-75
2024/01/31 04:01:23;;;;;;;;;;;;;;;-144.99;100.00;52484.78;5008642;28;20019;-75
2024/01/31 04:03:49;;;;;;;;;;;;;;;-144.99;100.00;52492.94;5008796;28;20036;-75
2024/01/31 04:06:17;;;;;;;;;;;;;;;-144.99;100.00;52474.59;5006092;28;20015;-75
2024/01/31 04:08:44;;;;;;;;;;;;;;;-144.99;100.00;52484.78;5004276;28;20028;-75
2024/01/31 04:11:10;;;;;;;;;;;;;;;-144.99;100.00;52466.44;5008103;28;20265;-74
2024/01/31 04:13:37;;;;;;;;;;;;;;;-144.99;100.00;52482.75;5011517;28;20012;-80
2024/01/31 04:16:04;;;;;;;;;;;;;;;-144.99;100.00;52439.94;5003711;28;19937;-80
2024/01/31 04:18:30;;;;;;;;;;;;;;;-144.99;100.00;52472.56;5010664;28;20029;-76
2024/01/31 04:20:56;;;;;;;;;;;;;;;-144.99;100.00;52456.25;5006579;28;20015;-75
2024/01/31 04:23:24;;;;;;;;;;;;;;;-144.99;100.00;52492.94;5010946;28;20024;-79
2024/01/31 04:25:51;;;;;;;;;;;;;;;-144.99;100.00;52525.56;5015755;28;19936;-75
2024/01/31 04:28:18;;;;;;;;;;;;;;;-144.99;100.00;52460.31;5011538;28;20497;-79
2024/01/31 04:30:45;;;;;;;;;;;;;;;-144.99;100.00;52501.09;5008394;28;19933;-81
2024/01/31 04:33:11;;;;;;;;;;;;;;;-144.99;100.00;52425.66;5008540;28;20020;-80
2024/01/31 04:35:38;;;;;;;;;;;;;;;-144.99;100.00;52480.72;5011515;28;20373;-73
2024/01/31 04:38:05;;;;;;;;;;;;;;;-144.99;100.00;52470.50;5009332;28;20028;-74
2024/01/31 04:40:33;;;;;;;;;;;;;;;-144.99;100.00;52480.72;5008793;28;19929;-75
2024/01/31 04:42:59;;;;;;;;;;;;;;;-144.99;100.00;52480.72;5009192;28;19926;-77
2024/01/31 04:45:25;;;;;;;;;;;;;;;-144.99;100.00;52488.84;5008511;28;19964;-76
2024/01/31 04:47:52;;;;;;;;;;;;;;;-144.99;100.00;52460.31;5002741;28;20013;-75
2024/01/31 04:50:18;;;;;;;;;;;;;;;-144.99;100.00;52497.00;5005406;28;19930;-75
2024/01/31 04:52:45;;;;;;;;;;;;;;;-144.99;100.00;52505.16;5006785;28;19961;-74
2024/01/31 04:55:10;;;;;;;;;;;;;;;-144.99;100.00;52537.78;5010401;28;20394;-77
2024/01/31 04:57:39;;;;;;;;;;;;;;;-144.99;100.00;52478.66;5010621;28;19932;-78
2024/01/31 05:00:07;;;;;;;;;;;;;;;-144.99;100.00;52439.94;5013188;28;20034;-76
2024/01/31 05:02:33;;;;;;;;;;;;;;;-144.99;98.77;52482.75;5013044;28;19929;-77
2024/01/31 05:05:00;;;;;;;;;;;;;;;-144.99;98.59;52519.44;5004367;28;20028;-76
2024/01/31 05:07:27;;;;;;;;;;;;;;;-144.99;98.21;52482.75;5005073;28;19972;-76
2024/01/31 05:09:53;;;;;;;;;;;;;;;-144.99;97.81;52472.56;5001933;28;20409;-75
2024/01/31 05:12:19;;;;;;;;;;;;;;;-144.99;97.76;52448.09;5012751;28;19969;-73
2024/01/31 05:14:47;;;;;;;;;;;;;;;-144.99;96.99;52476.63;5013670;28;20012;-78
2024/01/31 05:17:15;;;;;;;;;;;;;;;-144.99;96.65;52484.78;5003066;28;20000;-78
2024/01/31 05:19:42;;;;;;;;;;;;;;;-144.99;96.68;52488.84;5010149;28;20301;-78
2024/01/31 05:22:08;;;;;;;;;;;;;;;-144.99;96.98;52448.09;5007189;28;19957;-77
2024/01/31 05:24:35;;;;;;;;;;;;;;;-144.99;96.61;52480.72;5012248;28;20002;-77
2024/01/31 05:27:03;;;;;;;;;;;;;;;-144.99;96.68;52513.31;5011494;28;19992;-75
2024/01/31 05:29:30;;;;;;;;;;;;;;;-144.99;96.90;52515.34;5003113;28;20036;-76
2024/01/31 05:31:58;;;;;;;;;;;;;;;-144.99;96.87;52484.78;5008597;28;20501;-79
2024/01/31 05:34:24;;;;;;;;;;;;;;;-144.99;96.56;52484.78;5002816;28;19929;-80
2024/01/31 05:36:51;;;;;;;;;;;;;;;-144.99;96.89;52507.19;5010746;28;20000;-77
2024/01/31 05:39:17;;;;;;;;;;;;;;;-144.99;96.71;52501.09;5012256;28;19929;-79
2024/01/31 05:41:44;;;;;;;;;;;;;;;-144.99;96.33;52505.16;5016094;28;19992;-80
2024/01/31 05:44:10;;;;;;;;;;;;;;;-144.99;96.33;52464.41;5008325;28;20000;-75
2024/01/31 05:46:37;;;;;;;;;;;;;;;-144.99;96.40;52497.00;4984314;28;20375;-74
2024/01/31 05:49:05;;;;;;;;;;;;;;;-144.99;95.98;52488.84;5012358;28;20027;-82
2024/01/31 05:51:31;;;;;;;;;;;;;;;-144.99;95.89;52490.91;5012521;28;19930;-77
2024/01/31 05:53:57;;;;;;;;;;;;;;;-144.99;95.49;52492.94;5009094;28;19984;-77
2024/01/31 05:56:24;;;;;;;;;;;;;;;-144.99;95.68;52472.56;5008353;28;20039;-76
2024/01/31 05:58:51;;;;;;;;;;;;;;;-144.99;95.41;52464.41;5003162;28;20326;-76
2024/01/31 06:01:17;;;;;;;;;;;;;;;-144.99;94.75;52462.34;5007923;28;20019;-78
2024/01/31 06:03:43;;;;;;;;;;;;;;;-144.99;94.22;52509.25;5013081;28;19965;-81
2024/01/31 06:06:11;;;;;;;;;;;;;;;-144.99;94.34;52497.00;5013269;28;20033;-80
2024/01/31 06:08:37;;;;;;;;;;;;;;;-144.99;93.82;52509.25;5009494;28;19961;-79
2024/01/31 06:11:08;;;;;;;;;;;;;;;-144.99;93.96;52505.16;5012902;28;20350;-82
2024/01/31 06:13:34;;;;;;;;;;;;;;;-144.99;92.87;52480.72;5018929;28;20285;-81
2024/01/31 06:16:02;;;;;;;;;;;;;;;-144.99;93.14;52417.53;5013075;28;19989;-81
2024/01/31 06:18:32;;;;;;;;;;;;;;;-144.99;92.74;52497.00;5002838;28;19925;-80
2024/01/31 06:20:59;;;;;;;;;;;;;;;-144.99;92.68;52468.47;5014509;28;19935;-81
2024/01/31 06:23:27;;;;;;;;;;;;;;;-144.99;93.49;52515.34;5015967;28;19995;-81
2024/01/31 06:25:53;;;;;;;;;;;;;;;-144.99;93.59;52452.16;5019765;28;19972;-80
2024/01/31 06:28:20;;;;;;;;;;;;;;;-144.99;93.75;52521.47;5019936;28;19972;-80
2024/01/31 06:30:53;;;;;;;;;;;;;;;-144.99;93.99;52484.78;5013395;28;19989;-80
2024/01/31 06:33:27;;;;;;;;;;;;;;;-144.99;94.04;52492.94;5012327;28;19930;-80
2024/01/31 06:35:53;;;;;;;;;;;;;;;-144.99;94.21;52503.13;5027555;28;19996;-81
2024/01/31 06:38:20;;;;;;;;;;;;;;;-144.99;94.74;52521.47;5017224;28;19956;-80
2024/01/31 06:40:48;;;;;;;;;;;;;;;-144.99;94.96;52488.84;5015793;28;20490;-81
2024/01/31 06:43:14;;;;;;;;;;;;;;;-144.99;95.28;52521.47;5016764;28;19926;-81
2024/01/31 06:45:41;;;;;;;;;;;;;;;-144.99;95.10;52501.09;5012396;28;20019;-79
2024/01/31 06:48:09;;;;;;;;;;;;;;;-144.99;95.24;52513.31;5018076;28;20020;-81
2024/01/31 06:50:36;;;;;;;;;;;;;;;-144.99;95.46;52558.16;4999398;28;19969;-81
2024/01/31 06:53:03;;;;;;;;;;;;;;;-144.99;94.89;52492.94;5015905;28;20004;-82
2024/01/31 06:55:29;;;;;;;;;;;;;;;-144.99;93.98;52480.72;5015556;28;20441;-78
2024/01/31 06:57:57;;;;;;;;;;;;;;;-144.99;93.87;52492.94;5019140;28;19936;-81
2024/01/31 07:00:23;;;;;;;;;;;;;;;-144.99;93.59;52474.59;5025247;28;19993;-80
2024/01/31 07:02:52;;;;;;;;;;;;;;;-144.99;93.84;52505.16;5027416;28;19958;-82
2024/01/31 07:05:19;;;;;;;;;;;;;;;-144.99;94.25;52505.16;5013257;28;19929;-80
2024/01/31 07:07:46;;;;;;;;;;;;;;;-144.99;93.98;52505.16;5012284;28;19992;-78
2024/01/31 07:10:12;;;;;;;;;;;;;;;-144.99;93.64;52505.16;5010938;28;20293;-79
2024/01/31 07:12:38;;;;;;;;;;;;;;;-144.99;93.00;52499.06;5010989;28;20020;-79
2024/01/31 07:15:07;;;;;;;;;;;;;;;-144.99;92.44;52529.63;5009652;28;20336;-79
2024/01/31 07:17:34;;;;;;;;;;;;;;;-144.99;92.99;52505.16;5009217;28;20028;-79
2024/01/31 07:20:00;;;;;;;;;;;;;;;-144.99;93.19;52494.97;5008746;28;19934;-77
2024/01/31 07:22:27;;;;;;;;;;;;;;;-144.99;92.73;52509.25;5014855;28;19925;-81
2024/01/31 07:24:53;;;;;;;;;;;;;;;-144.99;93.19;52476.63;5018103;28;19929;-80
2024/01/31 07:27:19;;;;;;;;;;;;;;;-144.99;92.67;52468.47;5017278;28;20011;-81
2024/01/31 07:29:46;;;;;;;;;;;;;;;-144.99;92.99;52525.56;5013328;28;19981;-80
2024/01/31 07:32:14;;;;;;;;;;;;;;;-144.99;92.89;52464.41;5015269;28;19925;-79
2024/01/31 07:34:41;;;;;;;;;;;;;;;-144.99;93.55;52494.97;5015863;28;20339;-80
2024/01/31 07:37:08;;;;;;;;;;;;;;;-144.99;93.68;52497.00;5012846;28;20039;-79
2024/01/31 07:39:34;;;;;;;;;;;;;;;-144.99;93.19;52533.69;5009315;28;19929;-80
2024/01/31 07:42:00;;;;;;;;;;;;;;;-144.99;93.24;52505.16;5009498;28;20008;-79
2024/01/31 07:44:27;;;;;;;;;;;;;;;-144.99;93.35;52521.47;5014373;28;19965;-79
2024/01/31 07:46:53;;;;;;;;;;;;;;;-144.99;93.02;52550.00;5007201;28;19933;-81
2024/01/31 07:49:21;;;;;;;;;;;;;;;-144.99;93.88;52472.56;5018865;28;20318;-80
2024/01/31 07:51:52;;;;;;;;;;;;;;;-144.99;94.32;52525.56;5007232;28;20290;-79
2024/01/31 07:54:19;;;;;;;;;;;;;;;-144.99;94.08;52511.28;5002872;28;19955;-79
2024/01/31 07:56:45;;;;;;;;;;;;;;;-144.99;94.28;52509.25;5009367;28;20131;-80
2024/01/31 07:59:12;;;;;;;;;;;;;;;-144.99;94.10;52497.00;5011454;28;19961;-80
2024/01/31 08:01:38;;;;;;;;;;;;;;;-144.99;94.28;52488.84;5009406;28;19948;-80
2024/01/31 08:04:05;;;;;;;;;;;;;;;-144.99;94.56;52505.16;5009335;28;20011;-80
2024/01/31 08:06:33;;;;;;;;;;;;;;;-144.99;94.23;52501.09;5010719;28;19932;-80
2024/01/31 08:08:59;;;;;;;;;;;;;;;-144.99;94.12;52488.84;5008355;28;20420;-80
2024/01/31 08:11:25;;;;;;;;;;;;;;;-144.99;93.89;52468.47;5009451;28;20491;-80
2024/01/31 08:13:52;;;;;;;;;;;;;;;-144.99;93.92;52509.25;5009998;28;19992;-78
2024/01/31 08:16:18;;;;;;;;;;;;;;;-144.99;94.30;52484.78;5008106;28;20008;-78
2024/01/31 08:18:45;;;;;;;;;;;;;;;-144.99;93.94;52507.19;5004445;28;20012;-79
2024/01/31 08:21:11;;;;;;;;;;;;;;;-144.99;93.69;52466.44;5010103;28;19932;-77
2024/01/31 08:23:39;;;;;;;;;;;;;;;-144.99;92.61;52497.00;5010046;28;19964;-80
2024/01/31 08:26:07;;;;;;;;;;;;;;;-144.99;92.98;52484.78;5009462;28;19960;-78
2024/01/31 08:28:33;;;;;;;;;;;;;;;-144.99;93.07;52525.56;5006913;28;19961;-79
2024/01/31 08:31:00;;;;;;;;;;;;;;;-144.99;92.05;52554.09;5008836;28;20205;-79
2024/01/31 08:33:26;;;;;;;;;;;;;;;-144.99;91.54;52529.63;5011043;28;20009;-79
2024/01/31 08:35:53;;;;;;;;;;;;;;;-144.99;91.95;52507.19;5012559;28;19987;-79
2024/01/31 08:38:19;;;;;;;;;;;;;;;-144.99;90.96;52472.56;5011259;28;20585;-78
2024/01/31 08:40:47;;;;;;;;;;;;;;;-144.99;90.93;52439.94;5011409;28;19925;-78
2024/01/31 08:43:13;;;;;;;;;;;;;;;-144.99;90.86;52456.25;5009303;28;19925;-79
2024/01/31 08:45:40;;;;;;;;;;;;;;;-144.99;89.80;52497.00;5015668;28;20344;-80
2024/01/31 08:48:07;;;;;;;;;;;;;;;-144.99;89.86;52507.19;5026417;28;19926;-82
2024/01/31 08:50:33;;;;;;;;;;;;;;;-144.99;89.90;52497.00;5027341;28;19925;-81
2024/01/31 08:52:59;;;;;;;;;;;;;;;-144.99;90.18;52529.63;5023881;28;19926;-80
2024/01/31 08:55:26;;;;;;;;;;;;;;;-144.99;90.20;52472.56;5022120;28;19988;-79
2024/01/31 08:57:54;;;;;;;;;;;;;;;-144.99;90.21;52497.00;5025001;28;19940;-77
2024/01/31 09:00:20;;;;;;;;;;;;;;;-144.99;88.88;52419.56;5021400;28;19930;-80
2024/01/31 09:02:47;;;;;;;;;;;;;;;-144.99;87.90;52464.41;5017770;28;19926;-76
2024/01/31 09:05:14;;;;;;;;;;;;;;;-144.99;87.38;52474.59;5012844;28;19972;-79
2024/01/31 09:07:40;;;;;;;;;;;;;;;-144.99;86.54;52427.72;5009227;28;20017;-79
2024/01/31 09:10:07;;;;;;;;;;;;;;;-144.99;84.75;52423.63;5008650;28;20008;-81
2024/01/31 09:12:33;;;;;;;;;;;;;;;-144.99;84.03;52435.88;5011212;28;19933;-79
2024/01/31 09:15:01;;;;;;;;;;;;;;;-144.99;83.73;52488.84;5007038;28;20028;-77
2024/01/31 09:17:28;;;;;;;;;;;;;;;-144.99;82.23;52427.72;5008492;28;19969;-78
2024/01/31 09:19:54;;;;;;;;;;;;;;;-144.99;82.11;52456.25;5000127;28;20021;-77
2024/01/31 09:22:20;;;;;;;;;;;;;;;-144.99;81.15;52472.56;5007851;28;19965;-77
2024/01/31 09:24:47;;;;;;;;;;;;;;;-144.99;82.09;52476.63;5009838;28;20315;-78
2024/01/31 09:27:15;;;;;;;;;;;;;;;-144.99;82.53;52468.47;5011018;28;19957;-79
2024/01/31 09:29:41;;;;;;;;;;;;;;;-144.99;82.90;52454.22;5021769;28;19925;-77
2024/01/31 09:32:09;;;;;;;;;;;;;;;-144.99;83.94;52484.78;5020918;28;19926;-81
2024/01/31 09:34:36;;;;;;;;;;;;;;;-144.99;84.29;52452.16;5008141;28;19930;-78
2024/01/31 09:37:02;;;;;;;;;;;;;;;-144.99;83.89;52470.50;5006250;28;19957;-79
2024/01/31 09:39:30;;;;;;;;;;;;;;;-144.99;84.25;52452.16;5008007;28;19968;-79
2024/01/31 09:41:57;;;;;;;;;;;;;;;-144.99;84.03;52492.94;5007683;28;20024;-78
2024/01/31 09:44:24;;;;;;;;;;;;;;;-144.99;85.09;52448.09;5007921;28;20023;-79
2024/01/31 09:46:52;;;;;;;;;;;;;;;-144.99;84.80;52501.09;5006975;28;19926;-78
2024/01/31 09:49:20;;;;;;;;;;;;;;;-144.99;84.25;52503.13;5001134;28;19929;-76
2024/01/31 09:51:48;;;;;;;;;;;;;;;-144.99;84.55;52505.16;5006762;28;19965;-78
2024/01/31 09:54:14;;;;;;;;;;;;;;;-144.99;83.67;52484.78;4994287;28;19979;-78
2024/01/31 09:56:41;;;;;;;;;;;;;;;-144.99;83.97;52505.16;5008091;28;20024;-78
2024/01/31 09:59:07;;;;;;;;;;;;;;;-144.99;83.46;52501.09;5008391;28;20024;-81
2024/01/31 10:01:34;;;;;;;;;;;;;;;-144.99;84.25;52492.94;5011004;28;19980;-78
2024/01/31 10:04:01;;;;;;;;;;;;;;;-144.99;83.68;52513.31;5007829;28;19925;-79
2024/01/31 10:06:29;;;;;;;;;;;;;;;-144.99;83.09;52484.78;5008655;28;19976;-78
2024/01/31 10:08:56;;;;;;;;;;;;;;;-144.99;83.25;52460.31;5007056;28;19972;-78
2024/01/31 10:11:23;;;;;;;;;;;;;;;-144.99;83.06;52513.31;5005966;28;19965;-79
2024/01/31 10:13:49;;;;;;;;;;;;;;;-144.99;82.49;52478.66;5007654;28;19929;-79
2024/01/31 10:16:15;;;;;;;;;;;;;;;-144.99;82.79;52494.97;5007750;28;20210;-80
2024/01/31 10:18:42;;;;;;;;;;;;;;;-144.99;82.16;52501.09;5007744;28;19932;-79
2024/01/31 10:21:09;;;;;;;;;;;;;;;-144.99;80.92;52468.47;5010208;28;19926;-79
2024/01/31 10:23:37;;;;;;;;;;;;;;;-144.99;81.31;52476.63;5010178;28;19933;-79
2024/01/31 10:26:04;;;;;;;;;;;;;;;-144.99;81.53;52478.66;5011732;28;19976;-82
2024/01/31 10:28:30;;;;;;;;;;;;;;;-144.99;81.83;52503.13;5016219;28;19968;-80
2024/01/31 10:30:57;;;;;;;;;;;;;;;-144.99;82.10;52497.00;5013772;28;20376;-79
2024/01/31 10:33:24;;;;;;;;;;;;;;;-144.99;81.19;52452.16;5003534;28;19949;-80
2024/01/31 10:35:52;;;;;;;;;;;;;;;-144.99;80.61;52472.56;5008130;28;20371;-76
2024/01/31 10:38:19;;;;;;;;;;;;;;;-144.99;79.82;52460.31;5009264;28;19976;-79
2024/01/31 10:40:48;;;;;;;;;;;;;;;-144.99;79.42;52501.09;5008347;28;19925;-79
2024/01/31 10:43:15;;;;;;;;;;;;;;;-144.99;79.94;52509.25;5009574;28;20377;-80
2024/01/31 10:45:41;;;;;;;;;;;;;;;-144.99;79.88;52513.31;5008933;28;20122;-80
2024/01/31 10:48:08;;;;;;;;;;;;;;;-144.99;79.73;52507.19;5009582;28;19973;-79
2024/01/31 10:50:34;;;;;;;;;;;;;;;-144.99;79.81;52507.19;5010445;28;20291;-79
2024/01/31 10:53:03;;;;;;;;;;;;;;;-144.99;79.53;52480.72;5011036;28;19936;-80
2024/01/31 10:55:30;;;;;;;;;;;;;;;-144.99;80.69;52488.84;5014877;28;19936;-78
2024/01/31 10:58:00;;;;;;;;;;;;;;;-144.99;81.48;52497.00;5014641;28;19929;-80
2024/01/31 11:00:28;;;;;;;;;;;;;;;-144.99;81.31;52492.94;5023560;28;20006;-81
2024/01/31 11:02:55;;;;;;;;;;;;;;;-144.99;81.74;52517.41;5024643;28;19926;-80
2024/01/31 11:05:22;;;;;;;;;;;;;;;-144.99;81.51;52513.31;5009304;28;19925;-78
2024/01/31 11:07:48;;;;;;;;;;;;;;;-144.99;81.31;52545.94;5018204;28;19975;-81
2024/01/31 11:10:16;;;;;;;;;;;;;;;-144.99;82.02;52494.97;5015518;28;19925;-79
2024/01/31 11:12:43;;;;;;;;;;;;;;;-144.99;81.64;52513.31;5016121;28;19998;-79
2024/01/31 11:15:11;;;;;;;;;;;;;;;-144.99;82.20;52517.41;5017604;28;20385;-79
2024/01/31 11:17:43;;;;;;;;;;;;;;;-144.99;82.30;52497.00;5012636;28;20020;-78
2024/01/31 11:20:12;;;;;;;;;;;;;;;-144.99;82.20;52513.31;5004405;28;20033;-80
2024/01/31 11:22:41;;;;;;;;;;;;;;;-144.99;82.24;52513.31;5017011;28;19949;-80
2024/01/31 11:25:09;;;;;;;;;;;;;;;-144.99;83.24;52505.16;5014916;28;19930;-75
2024/01/31 11:27:35;;;;;;;;;;;;;;;-144.99;83.23;52501.09;5015926;28;20571;-79
2024/01/31 11:30:03;;;;;;;;;;;;;;;-144.99;83.54;52525.56;5017193;28;19926;-77
2024/01/31 11:32:31;;;;;;;;;;;;;;;-144.99;82.99;52501.09;5012278;28;19926;-78
2024/01/31 11:34:58;;;;;;;;;;;;;;;-144.99;83.46;52484.78;5013767;28;19964;-78
2024/01/31 11:37:24;;;;;;;;;;;;;;;-144.99;84.15;52519.44;5009664;28;20344;-78
2024/01/31 11:39:51;;;;;;;;;;;;;;;-144.99;83.83;52505.16;5009788;28;20330;-79
2024/01/31 11:42:17;;;;;;;;;;;;;;;-144.99;84.24;52533.69;5009846;28;20204;-79
2024/01/31 11:44:44;;;;;;;;;;;;;;;-144.99;83.54;52513.31;5010202;28;19957;-78
2024/01/31 11:47:11;;;;;;;;;;;;;;;-144.99;83.36;52517.41;5010271;28;20309;-79
2024/01/31 11:49:38;;;;;;;;;;;;;;;-144.99;82.57;52513.31;5008372;28;19929;-78
2024/01/31 11:52:05;;;;;;;;;;;;;;;-144.99;82.62;52541.84;5012774;28;19925;-80
2024/01/31 11:54:32;;;;;;;;;;;;;;;-144.99;82.72;52517.41;5012140;28;19925;-79
2024/01/31 11:56:58;;;;;;;;;;;;;;;-144.99;83.11;52525.56;5021128;28;19933;-80
2024/01/31 11:59:25;;;;;;;;;;;;;;;-144.99;83.84;52541.84;5024766;28;19929;-79
2024/01/31 12:01:51;;;;;;;;;;;;;;;-144.99;84.36;52492.94;5017251;28;19933;-76
2024/01/31 12:04:18;;;;;;;;;;;;;;;-144.99;84.22;52537.78;5020025;28;19932;-80
2024/01/31 12:06:45;;;;;;;;;;;;;;;-144.99;84.36;52503.13;5012873;28;20008;-79
2024/01/31 12:09:13;;;;;;;;;;;;;;;-144.99;83.67;52472.56;5019001;28;19925;-80
2024/01/31 12:11:40;;;;;;;;;;;;;;;-144.99;83.94;52533.69;5020894;28;19936;-80
2024/01/31 12:14:06;;;;;;;;;;;;;;;-144.99;84.63;52521.47;5020347;28;19926;-80
2024/01/31 12:16:39;;;;;;;;;;;;;;;-144.99;83.98;52509.25;5020017;28;19925;-81
2024/01/31 12:19:07;;;;;;;;;;;;;;;-144.99;83.92;52517.41;5015011;28;19932;-80
2024/01/31 12:21:40;;;;;;;;;;;;;;;-144.99;83.89;52472.56;5012622;28;19980;-78